createdAt,value
2017-11-19T00:01:36.359Z,20.20
2017-11-19T00:04:04.650Z,20.20
2017-11-19T00:06:33.799Z,20.20
2017-11-19T00:09:01.317Z,20.20
2017-11-19T00:11:28.828Z,20.30
2017-11-19T00:13:56.339Z,20.30
2017-11-19T00:16:23.867Z,20.30
2017-11-19T00:18:52.126Z,20.40
2017-11-19T00:21:19.655Z,20.30
2017-11-19T00:23:48.361Z,20.40
2017-11-19T00:26:16.635Z,20.40
2017-11-19T00:28:44.390Z,20.30
2017-11-19T00:31:13.146Z,20.30
2017-11-19T00:33:41.148Z,20.30
2017-11-19T00:36:09.799Z,20.30
2017-11-19T00:38:37.664Z,20.30
2017-11-19T00:41:05.531Z,20.30
2017-11-19T00:43:33.497Z,20.40
2017-11-19T00:46:01.259Z,20.40
2017-11-19T00:48:29.127Z,20.30
2017-11-19T00:50:57.093Z,20.30
2017-11-19T00:53:24.960Z,20.30
2017-11-19T00:55:52.823Z,20.30
2017-11-19T00:58:20.603Z,20.30
2017-11-19T01:00:49.374Z,20.30
2017-11-19T01:03:18.365Z,20.30
2017-11-19T01:05:46.742Z,20.40
2017-11-19T01:08:14.318Z,20.40
2017-11-19T01:10:42.263Z,20.40
2017-11-19T01:13:09.886Z,20.40
2017-11-19T01:15:38.152Z,20.50
2017-11-19T01:18:05.683Z,20.50
2017-11-19T01:20:34.103Z,20.50
2017-11-19T01:23:02.370Z,20.50
2017-11-19T01:25:30.658Z,20.50
2017-11-19T01:27:58.927Z,20.50
2017-11-19T01:30:27.215Z,20.50
2017-11-19T01:32:54.715Z,20.50
2017-11-19T01:35:22.229Z,20.50
2017-11-19T01:37:49.747Z,20.50
2017-11-19T01:40:17.247Z,20.50
2017-11-19T01:42:44.771Z,20.50
2017-11-19T01:45:12.847Z,20.50
2017-11-19T01:47:41.122Z,20.50
2017-11-19T01:50:09.427Z,20.50
2017-11-19T01:52:36.930Z,20.50
2017-11-19T01:55:04.454Z,20.50
2017-11-19T01:57:31.955Z,20.50
2017-11-19T01:59:59.510Z,20.50
2017-11-19T02:02:31.865Z,20.50
2017-11-19T02:05:01.336Z,20.50
2017-11-19T02:07:29.788Z,20.50
2017-11-19T02:09:58.096Z,20.50
2017-11-19T02:12:25.594Z,20.50
2017-11-19T02:14:53.122Z,20.50
2017-11-19T02:17:20.623Z,20.50
2017-11-19T02:19:48.124Z,20.50
2017-11-19T02:22:15.647Z,20.50
2017-11-19T02:24:43.911Z,20.50
2017-11-19T02:27:12.201Z,20.50
2017-11-19T02:29:40.464Z,20.50
2017-11-19T02:32:08.751Z,20.50
2017-11-19T02:34:37.032Z,20.50
2017-11-19T02:37:05.315Z,20.50
2017-11-19T02:39:32.811Z,20.50
2017-11-19T02:42:01.302Z,20.50
2017-11-19T02:44:28.845Z,20.50
2017-11-19T02:46:56.346Z,20.50
2017-11-19T02:49:24.642Z,20.50
2017-11-19T02:51:52.155Z,20.50
2017-11-19T02:54:19.683Z,20.50
2017-11-19T02:56:47.185Z,20.50
2017-11-19T02:59:15.512Z,20.50
2017-11-19T03:01:43.015Z,20.40
2017-11-19T03:04:11.306Z,20.40
2017-11-19T03:06:39.570Z,20.50
2017-11-19T03:09:07.865Z,20.50
2017-11-19T03:11:36.333Z,20.50
2017-11-19T03:14:04.592Z,20.50
2017-11-19T03:16:32.112Z,20.50
2017-11-19T03:19:00.565Z,20.50
2017-11-19T03:21:28.094Z,20.50
2017-11-19T03:23:56.361Z,20.50
2017-11-19T03:26:24.663Z,20.50
2017-11-19T03:28:52.926Z,20.50
2017-11-19T03:31:21.215Z,20.50
2017-11-19T03:33:48.711Z,20.50
2017-11-19T03:36:16.231Z,20.50
2017-11-19T03:38:43.734Z,20.50
2017-11-19T03:41:11.235Z,20.50
2017-11-19T03:43:39.527Z,20.40
2017-11-19T03:46:07.057Z,20.50
2017-11-19T03:48:34.576Z,20.50
2017-11-19T03:51:04.038Z,20.50
2017-11-19T03:53:31.566Z,20.50
2017-11-19T03:56:00.017Z,20.50
2017-11-19T03:58:27.543Z,20.50
2017-11-19T04:00:55.041Z,20.50
2017-11-19T04:03:22.567Z,20.50
2017-11-19T04:05:50.070Z,20.50
2017-11-19T04:08:17.607Z,20.50
2017-11-19T04:10:45.114Z,20.50
2017-11-19T04:13:12.619Z,20.50
2017-11-19T04:15:40.134Z,20.50
2017-11-19T04:18:07.678Z,20.50
2017-11-19T04:20:35.963Z,20.50
2017-11-19T04:23:03.466Z,20.50
2017-11-19T04:25:30.995Z,20.50
2017-11-19T04:27:58.503Z,20.50
2017-11-19T04:30:26.791Z,20.50
2017-11-19T04:32:55.071Z,20.40
2017-11-19T04:35:23.367Z,20.40
2017-11-19T04:37:50.871Z,20.50
2017-11-19T04:40:18.374Z,20.50
2017-11-19T04:42:47.857Z,20.40
2017-11-19T04:45:16.140Z,20.40
2017-11-19T04:47:44.432Z,20.50
2017-11-19T04:50:11.930Z,20.40
2017-11-19T04:52:39.460Z,20.50
2017-11-19T04:55:06.964Z,20.40
2017-11-19T04:57:34.487Z,20.40
2017-11-19T05:00:01.999Z,20.40
2017-11-19T05:02:30.291Z,20.50
2017-11-19T05:04:57.790Z,20.50
2017-11-19T05:07:25.290Z,20.50
2017-11-19T05:09:53.584Z,20.40
2017-11-19T05:12:21.084Z,20.40
2017-11-19T05:14:48.641Z,20.40
2017-11-19T05:17:16.144Z,20.40
2017-11-19T05:19:43.688Z,20.50
2017-11-19T05:22:11.963Z,20.40
2017-11-19T05:24:40.255Z,20.50
2017-11-19T05:27:07.772Z,20.40
2017-11-19T05:29:37.239Z,20.40
2017-11-19T05:32:04.735Z,20.40
2017-11-19T05:34:33.747Z,20.50
2017-11-19T05:37:02.035Z,20.50
2017-11-19T05:39:29.591Z,20.40
2017-11-19T05:41:57.076Z,20.50
2017-11-19T05:44:24.584Z,20.40
2017-11-19T05:46:52.117Z,20.50
2017-11-19T05:49:19.627Z,20.50
2017-11-19T05:51:49.151Z,20.50
2017-11-19T05:54:16.647Z,20.50
2017-11-19T05:56:44.149Z,20.50
2017-11-19T05:59:11.676Z,20.50
2017-11-19T06:01:39.944Z,20.50
2017-11-19T06:04:07.466Z,20.50
2017-11-19T06:06:34.967Z,20.50
2017-11-19T06:09:03.257Z,20.50
2017-11-19T06:11:31.524Z,20.50
2017-11-19T06:13:59.799Z,20.40
2017-11-19T06:16:28.085Z,20.40
2017-11-19T06:18:55.598Z,20.40
2017-11-19T06:21:25.063Z,20.40
2017-11-19T06:23:52.567Z,20.40
2017-11-19T06:26:20.097Z,20.40
2017-11-19T06:28:47.595Z,20.40
2017-11-19T06:31:15.894Z,20.40
2017-11-19T06:33:43.408Z,20.40
2017-11-19T06:36:12.974Z,20.40
2017-11-19T06:38:40.474Z,20.40
2017-11-19T06:41:07.977Z,20.40
2017-11-19T06:43:35.503Z,20.40
2017-11-19T06:46:03.771Z,20.40
2017-11-19T06:48:31.291Z,20.40
2017-11-19T06:50:58.787Z,20.40
2017-11-19T06:53:26.312Z,20.40
2017-11-19T06:55:53.811Z,20.40
2017-11-19T06:58:22.108Z,20.40
2017-11-19T07:00:49.614Z,20.40
2017-11-19T07:03:17.143Z,20.40
2017-11-19T07:05:44.647Z,20.40
2017-11-19T07:08:13.095Z,20.40
2017-11-19T07:10:40.615Z,20.40
2017-11-19T07:13:08.114Z,20.40
2017-11-19T07:15:35.633Z,20.40
2017-11-19T07:18:03.126Z,20.40
2017-11-19T07:20:30.646Z,20.40
2017-11-19T07:22:58.162Z,20.40
2017-11-19T07:25:27.634Z,20.40
2017-11-19T07:27:55.131Z,20.40
2017-11-19T07:30:23.410Z,20.40
2017-11-19T07:32:51.692Z,20.40
2017-11-19T07:35:19.962Z,20.40
2017-11-19T07:37:48.246Z,20.40
2017-11-19T07:40:15.751Z,20.40
2017-11-19T07:42:45.236Z,20.40
2017-11-19T07:45:12.735Z,20.40
2017-11-19T07:47:40.254Z,20.40
2017-11-19T07:50:08.717Z,20.40
2017-11-19T07:52:36.251Z,20.40
2017-11-19T07:55:04.519Z,20.40
2017-11-19T07:57:32.863Z,20.40
2017-11-19T08:00:00.359Z,20.40
2017-11-19T08:02:28.647Z,20.40
2017-11-19T08:04:57.859Z,20.40
2017-11-19T08:07:25.397Z,20.40
2017-11-19T08:09:52.909Z,20.40
2017-11-19T08:12:20.415Z,20.40
2017-11-19T08:14:48.713Z,20.40
2017-11-19T08:17:16.224Z,20.40
2017-11-19T08:19:46.493Z,20.40
2017-11-19T08:22:14.003Z,20.40
2017-11-19T08:24:41.523Z,20.40
2017-11-19T08:27:09.912Z,20.40
2017-11-19T08:29:37.906Z,20.40
2017-11-19T08:32:06.359Z,20.40
2017-11-19T08:34:33.867Z,20.40
2017-11-19T08:37:01.391Z,20.40
2017-11-19T08:39:28.904Z,20.40
2017-11-19T08:41:56.427Z,20.40
2017-11-19T08:44:24.701Z,20.40
2017-11-19T08:46:52.990Z,20.40
2017-11-19T08:49:20.495Z,20.40
2017-11-19T08:51:48.024Z,20.40
2017-11-19T08:54:15.522Z,20.40
2017-11-19T08:56:44.984Z,20.40
2017-11-19T08:59:12.488Z,20.40
2017-11-19T09:01:40.014Z,20.40
2017-11-19T09:04:07.531Z,20.40
2017-11-19T09:06:35.822Z,20.40
2017-11-19T09:09:03.350Z,20.40
2017-11-19T09:11:31.643Z,20.40
2017-11-19T09:13:59.144Z,20.40
2017-11-19T09:16:26.671Z,20.40
2017-11-19T09:18:56.198Z,20.40
2017-11-19T09:21:23.718Z,20.40
2017-11-19T09:23:51.244Z,20.50
2017-11-19T09:26:18.742Z,20.40
2017-11-19T09:28:46.261Z,20.40
2017-11-19T09:31:13.760Z,20.50
2017-11-19T09:33:41.274Z,20.50
2017-11-19T09:36:08.794Z,20.50
2017-11-19T09:38:36.296Z,20.50
2017-11-19T09:41:04.832Z,20.50
2017-11-19T09:43:32.348Z,20.50
2017-11-19T09:46:00.615Z,20.50
2017-11-19T09:48:28.904Z,20.50
2017-11-19T09:50:57.190Z,20.50
2017-11-19T09:53:25.647Z,20.50
2017-11-19T09:55:53.950Z,20.50
2017-11-19T09:58:21.451Z,20.50
2017-11-19T10:00:49.907Z,20.50
2017-11-19T10:03:17.426Z,20.50
2017-11-19T10:05:45.696Z,20.50
2017-11-19T10:08:14.042Z,20.50
2017-11-19T10:10:41.547Z,20.50
2017-11-19T10:13:09.038Z,20.50
2017-11-19T10:15:36.599Z,20.50
2017-11-19T10:18:04.238Z,20.50
2017-11-19T10:20:31.766Z,20.50
2017-11-19T10:23:00.035Z,20.50
2017-11-19T10:25:28.328Z,20.50
2017-11-19T10:27:56.795Z,20.50
2017-11-19T10:30:24.323Z,20.50
2017-11-19T10:32:51.860Z,20.50
2017-11-19T10:35:19.387Z,20.50
2017-11-19T10:37:46.897Z,20.50
2017-11-19T10:40:14.431Z,20.50
2017-11-19T10:42:41.951Z,20.50
2017-11-19T10:45:09.467Z,20.50
2017-11-19T10:47:36.998Z,20.50
2017-11-19T10:50:04.551Z,20.50
2017-11-19T10:52:32.071Z,20.50
2017-11-19T10:55:00.365Z,20.50
2017-11-19T10:57:28.137Z,20.50
2017-11-19T10:59:55.667Z,20.50
2017-11-19T11:02:23.971Z,20.50
2017-11-19T11:04:51.480Z,20.50
2017-11-19T11:07:19.791Z,20.50
2017-11-19T11:09:47.303Z,20.50
2017-11-19T11:12:14.812Z,20.50
2017-11-19T11:14:43.604Z,20.50
2017-11-19T11:17:11.469Z,20.50
2017-11-19T11:19:39.043Z,20.50
2017-11-19T11:22:06.621Z,20.50
2017-11-19T11:24:34.349Z,20.50
2017-11-19T11:27:01.978Z,20.50
2017-11-19T11:29:29.681Z,20.50
2017-11-19T11:31:57.207Z,20.50
2017-11-19T11:34:24.992Z,20.50
2017-11-19T11:36:52.552Z,20.50
2017-11-19T11:39:20.274Z,20.50
2017-11-19T11:41:48.280Z,20.60
2017-11-19T11:44:16.144Z,20.60
2017-11-19T11:46:43.678Z,20.60
2017-11-19T11:49:11.991Z,20.60
2017-11-19T11:51:40.455Z,20.60
2017-11-19T11:54:07.979Z,20.60
2017-11-19T11:56:36.252Z,20.70
2017-11-19T11:59:04.566Z,20.60
2017-11-19T12:01:32.059Z,20.60
2017-11-19T12:03:59.582Z,20.60
2017-11-19T12:06:27.231Z,20.70
2017-11-19T12:08:55.003Z,20.70
2017-11-19T12:11:22.534Z,20.70
2017-11-19T12:13:52.063Z,20.70
2017-11-19T12:16:19.577Z,20.70
2017-11-19T12:18:47.866Z,20.70
2017-11-19T12:21:16.140Z,20.70
2017-11-19T12:23:45.403Z,20.70
2017-11-19T12:26:12.906Z,20.70
2017-11-19T12:28:40.407Z,20.70
2017-11-19T12:31:09.186Z,20.70
2017-11-19T12:33:37.510Z,20.70
2017-11-19T12:36:05.803Z,20.70
2017-11-19T12:38:33.332Z,20.70
2017-11-19T12:41:01.627Z,20.70
2017-11-19T12:43:29.137Z,20.70
2017-11-19T12:45:56.808Z,20.70
2017-11-19T12:48:24.323Z,20.70
2017-11-19T12:50:51.847Z,20.70
2017-11-19T12:53:20.120Z,20.70
2017-11-19T12:55:48.395Z,20.70
2017-11-19T12:58:16.691Z,20.70
2017-11-19T13:00:44.203Z,20.70
2017-11-19T13:03:11.731Z,20.70
2017-11-19T13:05:39.234Z,20.70
2017-11-19T13:08:06.785Z,20.60
2017-11-19T13:10:34.278Z,20.50
2017-11-19T13:13:01.806Z,20.50
2017-11-19T13:15:30.080Z,20.50
2017-11-19T13:17:57.603Z,20.50
2017-11-19T13:20:25.122Z,20.50
2017-11-19T13:22:52.623Z,20.40
2017-11-19T13:25:20.146Z,20.40
2017-11-19T13:27:47.644Z,20.40
2017-11-19T13:30:15.172Z,20.30
2017-11-19T13:32:42.675Z,20.40
2017-11-19T13:35:10.976Z,20.40
2017-11-19T13:37:39.242Z,20.40
2017-11-19T13:40:07.527Z,20.40
2017-11-19T13:42:35.031Z,20.40
2017-11-19T13:45:02.535Z,20.40
2017-11-19T13:47:30.822Z,20.40
2017-11-19T13:49:58.342Z,20.40
2017-11-19T13:52:25.859Z,20.40
2017-11-19T13:54:53.487Z,20.40
2017-11-19T13:57:21.140Z,20.40
2017-11-19T13:59:50.203Z,20.40
2017-11-19T14:02:18.940Z,20.40
2017-11-19T14:04:47.949Z,20.40
2017-11-19T14:07:15.917Z,20.40
2017-11-19T14:09:43.885Z,20.40
2017-11-19T14:12:11.852Z,20.40
2017-11-19T14:14:39.888Z,20.40
2017-11-19T14:17:07.791Z,20.40
2017-11-19T14:19:35.756Z,20.40
2017-11-19T14:22:03.724Z,20.40
2017-11-19T14:24:32.408Z,20.40
2017-11-19T14:27:00.274Z,20.40
2017-11-19T14:29:28.139Z,20.40
2017-11-19T14:31:56.004Z,20.40
2017-11-19T14:34:23.807Z,20.40
2017-11-19T14:36:51.641Z,20.40
2017-11-19T14:39:19.396Z,20.40
2017-11-19T14:41:47.261Z,20.50
2017-11-19T14:44:14.771Z,20.50
2017-11-19T14:46:43.059Z,20.50
2017-11-19T14:49:11.327Z,20.50
2017-11-19T14:51:39.611Z,20.50
2017-11-19T14:54:09.851Z,20.40
2017-11-19T14:56:37.359Z,20.40
2017-11-19T14:59:04.888Z,20.30
2017-11-19T15:01:32.400Z,20.40
2017-11-19T15:04:00.691Z,20.40
2017-11-19T15:06:28.195Z,20.30
2017-11-19T15:08:55.720Z,20.30
2017-11-19T15:11:23.219Z,20.40
2017-11-19T15:13:52.696Z,20.40
2017-11-19T15:16:20.968Z,20.30
2017-11-19T15:18:48.500Z,20.30
2017-11-19T15:21:16.987Z,20.40
2017-11-19T15:23:45.316Z,20.40
2017-11-19T15:26:13.612Z,20.40
2017-11-19T15:28:41.895Z,20.50
2017-11-19T15:31:10.187Z,20.40
2017-11-19T15:33:37.687Z,20.40
2017-11-19T15:36:05.211Z,20.40
2017-11-19T15:38:32.710Z,20.40
2017-11-19T15:41:00.212Z,20.30
2017-11-19T15:43:27.732Z,20.40
2017-11-19T15:45:56.967Z,20.30
2017-11-19T15:48:27.307Z,20.30
2017-11-19T15:50:54.815Z,20.30
2017-11-19T15:53:23.083Z,20.30
2017-11-19T15:55:50.618Z,20.30
2017-11-19T15:58:18.119Z,20.30
2017-11-19T16:00:46.403Z,20.30
2017-11-19T16:03:13.912Z,20.30
2017-11-19T16:05:41.426Z,20.30
2017-11-19T16:08:08.959Z,20.30
2017-11-19T16:10:37.231Z,20.20
2017-11-19T16:13:05.522Z,20.20
2017-11-19T16:15:33.032Z,20.20
2017-11-19T16:18:00.535Z,20.20
2017-11-19T16:20:28.062Z,20.20
2017-11-19T16:22:55.559Z,20.20
2017-11-19T16:25:23.100Z,20.20
2017-11-19T16:27:51.375Z,20.20
2017-11-19T16:30:19.666Z,20.20
2017-11-19T16:32:47.172Z,20.20
2017-11-19T16:35:14.683Z,20.20
2017-11-19T16:37:42.206Z,20.20
2017-11-19T16:40:10.477Z,20.10
2017-11-19T16:42:37.999Z,20.20
2017-11-19T16:45:05.514Z,20.10
2017-11-19T16:47:33.802Z,20.20
2017-11-19T16:50:01.315Z,20.10
2017-11-19T16:52:28.839Z,20.20
2017-11-19T16:54:56.346Z,20.10
2017-11-19T16:57:24.630Z,20.10
2017-11-19T16:59:52.898Z,20.10
2017-11-19T17:02:21.201Z,20.10
2017-11-19T17:04:48.710Z,20.10
2017-11-19T17:07:16.216Z,20.10
2017-11-19T17:09:43.746Z,20.10
2017-11-19T17:12:12.022Z,20.10
2017-11-19T17:14:40.306Z,20.10
2017-11-19T17:17:09.536Z,20.10
2017-11-19T17:19:37.040Z,20.10
2017-11-19T17:22:04.562Z,20.10
2017-11-19T17:24:33.006Z,20.10
2017-11-19T17:27:00.528Z,20.00
2017-11-19T17:29:28.023Z,20.10
2017-11-19T17:31:55.518Z,20.10
2017-11-19T17:34:23.040Z,20.10
2017-11-19T17:36:51.503Z,20.00
2017-11-19T17:39:19.791Z,20.00
2017-11-19T17:41:47.299Z,20.00
2017-11-19T17:44:14.837Z,20.10
2017-11-19T17:46:42.339Z,20.00
2017-11-19T17:49:10.609Z,20.00
2017-11-19T17:51:38.925Z,20.00
2017-11-19T17:54:06.429Z,20.00
2017-11-19T17:56:33.946Z,20.00
2017-11-19T17:59:01.457Z,20.00
2017-11-19T18:01:29.757Z,20.00
2017-11-19T18:03:57.262Z,20.00
2017-11-19T18:06:24.763Z,20.00
2017-11-19T18:08:53.052Z,20.00
2017-11-19T18:11:20.547Z,20.00
2017-11-19T18:13:48.077Z,20.00
2017-11-19T18:16:15.582Z,20.00
2017-11-19T18:18:43.078Z,20.00
2017-11-19T18:21:10.603Z,20.00
2017-11-19T18:23:38.120Z,20.00
2017-11-19T18:26:05.654Z,20.00
2017-11-19T18:28:33.167Z,20.00
2017-11-19T18:31:00.714Z,20.00
2017-11-19T18:33:28.205Z,20.00
2017-11-19T18:35:56.478Z,20.00
2017-11-19T18:38:24.768Z,20.00
2017-11-19T18:40:52.268Z,20.00
2017-11-19T18:43:19.807Z,20.00
2017-11-19T18:45:47.300Z,20.00
2017-11-19T18:48:14.798Z,20.00
2017-11-19T18:50:42.319Z,20.00
2017-11-19T18:53:09.833Z,20.00
2017-11-19T18:55:37.358Z,20.00
2017-11-19T18:58:05.661Z,19.90
2017-11-19T19:00:34.110Z,19.90
2017-11-19T19:03:02.395Z,20.00
2017-11-19T19:05:29.894Z,19.90
2017-11-19T19:07:57.409Z,20.00
2017-11-19T19:10:24.903Z,19.90
2017-11-19T19:12:52.405Z,19.90
2017-11-19T19:15:20.717Z,19.90
2017-11-19T19:17:48.216Z,19.90
2017-11-19T19:20:15.742Z,19.90
2017-11-19T19:22:43.242Z,19.90
2017-11-19T19:25:10.740Z,19.90
2017-11-19T19:27:38.271Z,19.90
2017-11-19T19:30:06.542Z,19.90
2017-11-19T19:32:34.829Z,19.90
2017-11-19T19:35:03.091Z,19.90
2017-11-19T19:37:31.365Z,19.90
2017-11-19T19:40:01.620Z,19.90
2017-11-19T19:42:29.126Z,19.90
2017-11-19T19:44:56.659Z,19.90
2017-11-19T19:47:24.158Z,19.90
2017-11-19T19:49:52.419Z,19.90
2017-11-19T19:52:19.943Z,19.90
2017-11-19T19:54:47.451Z,19.90
2017-11-19T19:57:15.750Z,19.90
2017-11-19T19:59:43.251Z,19.90
2017-11-19T20:02:10.754Z,19.90
2017-11-19T20:04:40.231Z,19.90
2017-11-19T20:07:08.489Z,19.90
2017-11-19T20:09:36.018Z,19.90
2017-11-19T20:12:03.514Z,19.90
2017-11-19T20:14:31.014Z,19.90
2017-11-19T20:16:58.542Z,19.90
2017-11-19T20:19:28.786Z,19.90
2017-11-19T20:21:56.409Z,19.90
2017-11-19T20:24:24.708Z,19.90
2017-11-19T20:26:52.975Z,19.90
2017-11-19T20:29:21.268Z,19.90
2017-11-19T20:31:48.778Z,19.90
2017-11-19T20:34:16.306Z,19.90
2017-11-19T20:36:44.761Z,19.90
2017-11-19T20:39:12.290Z,19.90
2017-11-19T20:41:41.505Z,19.90
2017-11-19T20:44:09.770Z,19.90
2017-11-19T20:46:38.056Z,19.90
2017-11-19T20:49:06.322Z,20.00
2017-11-19T20:51:36.545Z,20.00
2017-11-19T20:54:04.835Z,20.00
2017-11-19T20:56:32.380Z,20.00
2017-11-19T20:59:00.651Z,20.10
2017-11-19T21:01:29.277Z,20.00
2017-11-19T21:03:58.036Z,20.00
2017-11-19T21:06:25.923Z,20.00
2017-11-19T21:08:53.585Z,20.00
2017-11-19T21:11:21.145Z,20.00
2017-11-19T21:13:48.670Z,20.00
2017-11-19T21:16:16.939Z,20.00
2017-11-19T21:18:45.230Z,20.00
2017-11-19T21:21:12.739Z,20.00
2017-11-19T21:23:42.209Z,20.00
2017-11-19T21:26:09.706Z,20.00
2017-11-19T21:28:37.202Z,20.00
2017-11-19T21:31:04.719Z,20.00
2017-11-19T21:33:32.249Z,20.00
2017-11-19T21:36:00.695Z,20.00
2017-11-19T21:38:28.190Z,20.00
2017-11-19T21:40:55.742Z,20.00
2017-11-19T21:43:23.238Z,20.00
2017-11-19T21:45:51.543Z,20.00
2017-11-19T21:48:20.019Z,20.00
2017-11-19T21:50:47.543Z,20.00
2017-11-19T21:53:15.038Z,20.00
2017-11-19T21:55:42.536Z,20.10
2017-11-19T21:58:10.054Z,20.00
2017-11-19T22:00:37.549Z,20.00
2017-11-19T22:03:05.048Z,20.10
2017-11-19T22:05:33.339Z,20.10
2017-11-19T22:08:00.839Z,20.10
2017-11-19T22:10:29.327Z,20.10
2017-11-19T22:12:56.870Z,20.10
2017-11-19T22:15:24.375Z,20.10
2017-11-19T22:17:53.623Z,20.10
2017-11-19T22:20:21.131Z,20.10
2017-11-19T22:22:49.398Z,20.20
2017-11-19T22:25:17.688Z,20.20
2017-11-19T22:27:45.950Z,20.20
2017-11-19T22:30:14.243Z,20.20
2017-11-19T22:32:41.746Z,20.10
2017-11-19T22:35:09.264Z,20.10
2017-11-19T22:37:37.726Z,20.10
2017-11-19T22:40:05.235Z,20.20
2017-11-19T22:42:32.754Z,20.20
2017-11-19T22:45:00.274Z,20.20
2017-11-19T22:47:27.781Z,20.20
2017-11-19T22:49:55.312Z,20.30
2017-11-19T22:52:23.602Z,20.30
2017-11-19T22:54:52.083Z,20.30
2017-11-19T22:57:20.549Z,20.30
2017-11-19T22:59:48.814Z,20.30
2017-11-19T23:02:18.085Z,20.30
2017-11-19T23:04:45.609Z,20.30
2017-11-19T23:07:13.138Z,20.40
2017-11-19T23:09:40.643Z,20.40
2017-11-19T23:12:08.187Z,20.40
2017-11-19T23:14:36.047Z,20.40
2017-11-19T23:17:03.655Z,20.40
2017-11-19T23:19:32.083Z,20.40
2017-11-19T23:21:59.595Z,20.30
2017-11-19T23:24:27.896Z,20.40
2017-11-19T23:26:55.403Z,20.40
2017-11-19T23:29:22.943Z,20.40
2017-11-19T23:31:50.469Z,20.40
2017-11-19T23:34:19.276Z,20.40
2017-11-19T23:36:48.779Z,20.40
2017-11-19T23:39:16.283Z,20.40
2017-11-19T23:41:43.791Z,20.40
2017-11-19T23:44:11.310Z,20.40
2017-11-19T23:46:39.575Z,20.40
2017-11-19T23:49:07.875Z,20.40
2017-11-19T23:51:35.379Z,20.40
2017-11-19T23:54:02.913Z,20.40
2017-11-19T23:56:32.393Z,20.40
2017-11-19T23:58:59.895Z,20.40
